Motte Rimrock Reserve, California Weather observations

Data are for 10 minute period ending at time listed.
 Day   Time   Solar   Ave.   Ave.  Ave.  Vector  Max.   Baro.   Total    
  of    of     Rad.   Air    Rel.  Wind   Wind   Wind  Press.  Precip.   
Year   Day            Temp.  Hum.  Speed  Dir.   Gust                    
2016   (PST)  Kw/m2    F      %     mph   deg.    mph    mb.     in.     
-------------------------------------------------------------------------
 269   16:10   0.29   90.7     8   11.8    59    20.3   946.9    0.00 
 269   16:20   0.25   90.4     8   14.1    68    21.3   946.8    0.00 
 269   16:30   0.22   89.7     8   14.9    71    22.5   946.8    0.00 
 269   16:40   0.18   89.3     8   16.3    73    23.6   946.7    0.00 
 269   16:50   0.15   88.9     8   14.3    72    22.4   946.6    0.00 
 269   17:00   0.12   88.7     8   12.5    74    19.3   946.7    0.00 
 269   17:10   0.09   88.1     8   13.6    70    20.2   946.7    0.00 
 269   17:20   0.06   87.4     8   12.5    73    18.0   946.8    0.00 
 269   17:30   0.03   87.0     9   10.9    72    16.0   946.9    0.00 
 269   17:40   0.01   86.4     9   13.8    70    21.5   947.0    0.00 
 269   17:50   0.01   86.1     9   14.5    73    21.4   947.1    0.00 
 269   18:00   0.01   85.7     9   14.5    78    25.9   947.3    0.00 
 269   18:10   0.00   85.2     9   13.8    76    20.2   947.5    0.00 
 269   18:20   0.00   85.1     9   14.3    73    20.7   947.6    0.00 
 269   18:30   0.00   84.8     9   13.9    73    23.2   947.7    0.00 
 269   18:40   0.00   84.9     9   12.2    62    19.6   947.9    0.00 
 269   18:50   0.00   85.0     9   10.7    70    15.9   948.0    0.00 
 269   19:00   0.00   85.0     9    9.8    68    15.9   948.2    0.00 
 269   19:10   0.00   85.0     9   11.4    93    19.1   948.2    0.00 
 269   19:20   0.00   84.2     9    9.3    89    16.1   948.4    0.00 
 269   19:30   0.00   84.1     9    9.5    90    16.3   948.5    0.00 
 269   19:40   0.00   84.0     9   11.8    82    18.3   948.7    0.00 
 269   19:50   0.00   84.1     9   11.6    76    18.1   948.7    0.00 
 269   20:00   0.00   83.9     9   10.2    63    15.9   948.8    0.00 
 269   20:10   0.00   83.7    10   11.5    60    20.2   948.9    0.00 
 269   20:20   0.00   83.8    10    8.4    48    19.6   949.1    0.00 
 269   20:30   0.00   83.2    10    6.7    35    15.1   949.2    0.00 
 269   20:40   0.00   82.8    10    5.8    38     9.6   949.3    0.00 
 269   20:50   0.00   82.7    10    6.2    48    10.5   949.2    0.00 
 269   21:00   0.00   82.4    10    8.3    56    11.7   949.2    0.00 
 269   21:10   0.00   82.0    10    5.2    66     9.1   949.3    0.00 
 269   21:20   0.00   81.2    11    4.8    69     8.7   949.3    0.00 
 269   21:30   0.00   81.2    11    6.5    54    10.4   949.2    0.00 
 269   21:40   0.00   81.4    11    6.3    54    14.1   949.3    0.00 
 269   21:50   0.00   81.2    11    6.4    67    10.6   949.4    0.00 
 269   22:00   0.00   81.5    11    4.5    92    10.3   949.4    0.00 
 269   22:10   0.00   80.9    11    1.7    36     3.8   949.6    0.00 
 269   22:20   0.00   81.0    11    2.9    31     6.5   949.4    0.00 
 269   22:30   0.00   80.7    11    2.3    66     6.0   949.4    0.00 
 269   22:40   0.00   80.8    11    1.9    14     4.3   949.4    0.00 
 269   22:50   0.00   80.5    11    2.1   130     8.4   949.5    0.00 
 269   23:00   0.00   80.6    12    5.8   106     9.4   949.4    0.00 
 269   23:10   0.00   80.8    12    5.3    88     8.3   949.4    0.00 
 269   23:20   0.00   80.3    12    4.9   110     8.8   949.5    0.00 
 269   23:30   0.00   79.7    12    7.6    78    11.0   949.5    0.00 
 269   23:40   0.00   79.9    13    9.7    68    14.5   949.5    0.00 
 269   23:50   0.00   80.5    12    9.1    70    12.5   949.4    0.00 
 270    0:00   0.00   80.3    13    8.3    70    10.7   949.4    0.00 
 270    0:10   0.00   79.2    13    5.2    72     8.6   949.4    0.00 
 270    0:20   0.00   79.0    13    4.7    58     6.8   949.4    0.00 
 270    0:30   0.00   79.4    13    4.6    40     5.5   949.4    0.00 
 270    0:40   0.00   79.1    13    6.1    14     7.4   949.4    0.00 
 270    0:50   0.00   78.6    13    6.6    11     8.9   949.4    0.00 
 270    1:00   0.00   78.2    13    8.0    11    10.6   949.3    0.00 
 270    1:10   0.00   77.5    14    7.0   359     9.3   949.2    0.00 
 270    1:20   0.00   75.0    14    5.5   336     7.2   949.2    0.00 
 270    1:30   0.00   75.8    14    4.5   328     6.3   949.2    0.00 
 270    1:40   0.00   76.8    14    4.5   334     5.6   949.1    0.00 
 270    1:50   0.00   76.9    14    5.6   350     6.6   949.0    0.00 
 270    2:00   0.00   76.8    14    5.2   345     5.8   948.9    0.00 
 270    2:10   0.00   76.7    14    4.9   343     6.1   948.8    0.00 
 270    2:20   0.00   77.1    14    7.4     7     8.8   948.8    0.00 
 270    2:30   0.00   76.9    14    6.8     5     8.3   948.7    0.00 
 270    2:40   0.00   76.3    14    5.5    11     7.6   948.8    0.00 
 270    2:50   0.00   76.9    14    6.8    17     8.8   948.6    0.00 
 270    3:00   0.00   75.8    15    7.0    10     8.6   948.6    0.00 
 270    3:10   0.00   75.7    15    4.8    13     7.2   948.6    0.00 
 270    3:20   0.00   73.4    16    4.5   330     6.1   948.7    0.00 
 270    3:30   0.00   74.3    16    6.1   356     7.7   948.6    0.00 
 270    3:40   0.00   75.2    16    6.8   354     8.5   948.5    0.00 
 270    3:50   0.00   74.5    16    5.5   342     6.6   948.6    0.00 
 270    4:00   0.00   75.2    15    4.6   346     5.6   948.7    0.00 
 270    4:10   0.00   75.8    15    5.4     7     7.6   948.8    0.00 
 270    4:20   0.00   75.8    16    6.4    14     8.3   948.8    0.00 
 270    4:30   0.00   75.2    16    5.7    11     8.3   948.8    0.00 
 270    4:40   0.00   74.3    17    5.3     2     7.3   948.9    0.00 
 270    4:50   0.00   75.3    16    4.4    23     6.4   949.0    0.00 
 270    5:00   0.00   76.1    16    5.2    24     6.4   949.1    0.00 
 270    5:10   0.00   75.7    16    5.8     8     7.4   949.1    0.00 
 270    5:20   0.00   75.1    17    7.0    10     8.8   949.1    0.00 
 270    5:30   0.00   76.3    16    6.5     9     8.0   949.1    0.00 
 270    5:40   0.00   76.7    16    6.0    16     8.2   949.2    0.00 
 270    5:50   0.01   76.7    16    6.0    11     9.0   949.2    0.00 
 270    6:00   0.02   76.6    16    5.9    12     7.8   949.3    0.00 
 270    6:10   0.04   77.8    15    6.1    22     8.3   949.4    0.00 
 270    6:20   0.07   78.7    15    6.1    24     8.8   949.4    0.00 
 270    6:30   0.10   78.7    15    5.1    21     8.6   949.6    0.00 
 270    6:40   0.14   78.3    15    3.9     7     5.8   949.7    0.00 
 270    6:50   0.17   78.9    15    5.3    13     8.8   949.7    0.00 
 270    7:00   0.20   80.4    14    6.3    15    11.5   949.7    0.00 
 270    7:10   0.24   81.5    14    5.3    25     8.0   949.8    0.00 
 270    7:20   0.28   82.5    14    5.0    36     8.0   949.7    0.00 
 270    7:30   0.31   82.5    14    5.5     8     7.9   949.6    0.00 
 270    7:40   0.35   82.6    14    6.7   351     9.3   949.5    0.00 
 270    7:50   0.38   82.4    14    8.4   328    10.2   949.5    0.00 
 270    8:00   0.41   83.3    14    8.0   329    10.3   949.6    0.00 
 270    8:10   0.45   84.3    13    7.6   333    10.5   949.5    0.00 
 270    8:20   0.48   85.2    13    7.4   331    10.4   949.5    0.00 
 270    8:30   0.51   85.9    13    5.2   345     8.2   949.5    0.00 
 270    8:40   0.54   87.6    12    5.7    19    10.0   949.4    0.00 
 270    8:50   0.57   89.3    12    3.2    49     6.6   949.4    0.00 
 270    9:00   0.60   89.5    12    5.9    58     9.7   949.4    0.00 
 270    9:10   0.62   89.7    11    6.4    64    10.0   949.4    0.00 
 270    9:20   0.65   90.0    11    6.9    84    11.9   949.3    0.00 
 270    9:30   0.67   90.9    11    8.6    57    16.3   949.2    0.00 
 270    9:40   0.70   91.3    11    8.8    75    16.2   949.1    0.00 
 270    9:50   0.72   92.6    10   12.1    74    19.4   948.9    0.00 
 270   10:00   0.74   92.4    10   16.3    83    24.3   948.7    0.00 
 270   10:10   0.75   92.9    10   16.4    76    24.5   948.6    0.00 
 270   10:20   0.77   92.5    10   17.9    80    26.5   948.5    0.00 
 270   10:30   0.78   92.6    10   18.9    84    25.6   948.4    0.00 
 270   10:40   0.80   93.2    10   18.2    85    25.6   948.3    0.00 
 270   10:50   0.81   93.6    10   17.5    76    27.2   948.3    0.00 
 270   11:00   0.82   94.0    10   18.0    79    27.9   948.2    0.00 
 270   11:10   0.83   93.9    10   19.5    90    27.9   948.2    0.00 
 270   11:20   0.85   94.6    10   17.4    97    25.2   948.1    0.00 
 270   11:30   0.87   94.4    10   20.3   108    28.4   947.9    0.00 
 270   11:40   0.82   94.2    10   18.9   110    27.5   947.9    0.00 
 270   11:50   0.76   94.0    10   16.7   117    25.6   947.9    0.00 
 270   12:00   0.70   94.6     9   15.3   119    22.6   947.8    0.00 
 270   12:10   0.53   93.5    10   17.2    83    23.8   947.7    0.00 
 270   12:20   0.56   92.9    10   15.8    95    23.6   947.6    0.00 
 270   12:30   0.50   92.4    10   16.4    88    21.3   947.6    0.00 
 270   12:40   0.50   92.5    10   12.8    91    17.9   947.5    0.00 
 270   12:50   0.44   92.4    10   11.2    96    17.8   947.4    0.00 
 270   13:00   0.35   92.2    10   10.5   108    17.0   947.3    0.00 
 270   13:10   0.56   92.2    10   12.9   122    17.8   947.2    0.00 
 270   13:20   0.69   93.3    10   13.1   134    17.9   947.1    0.00 
 270   13:30   0.35   92.5    10   10.9   145    16.6   947.1    0.00 
 270   13:40   0.37   91.8    10   12.3   122    15.9   947.0    0.00 
 270   13:50   0.32   91.8    10   11.7   119    15.9   946.9    0.00 
 270   14:00   0.36   92.0    10   11.1   126    15.8   946.8    0.00 
 270   14:10   0.35   91.7    10   10.1   114    14.1   946.6    0.00 
 270   14:20   0.48   91.9    10   12.3   105    20.0   946.5    0.00 
 270   14:30   0.60   91.8    10   10.9    89    17.5   946.5    0.00 
 270   14:40   0.69   93.0    10    8.8   106    16.1   946.5    0.00 
 270   14:50   0.29   92.0    10    8.3    90    14.8   946.4    0.00 
 270   15:00   0.46   92.6    10    8.0   115    16.1   946.3    0.00 
 270   15:10   0.56   93.6    10   11.4   134    15.8   946.1    0.00 
 270   15:20   0.34   93.2    10    8.5   138    13.8   946.1    0.00 
 270   15:30   0.23   92.3    10    7.1   146    10.6   946.0    0.00 
 270   15:40   0.36   92.8    10   10.0   101    16.0   945.9    0.00 
 270   15:50   0.18   92.7    10    9.4   107    14.0   945.8    0.00 
 270   16:00   0.09   90.9    11   11.1    82    15.2   945.7    0.00 

Return to Motte Rimrock Reserve graphs page.


Western Regional Climate Center,wrcc@dri.edu